Crews, Texas
Current Conditions -  °F | °C
As of 8:58 PM on Saturday 24 Jan 2015 (Local Time) from KDYS Reporting Station
Clear Clear  
Wind Chill: 38°   Ceiling: Unl
Heat Index: 43°   Visibility: 10mi
Dew Point: 35°   Wind: 8mph
Humidity: 75%   Direction: 210°SSW
Pressure: 30.03"   Gusts: NA
Location:  31.975°N, 99.9034°W
Report Text: KDYS 250258Z AUTO 21007KT 10SM CLR 06/02 A3003 RMK AO2 SLP174 T00600018 58004 $
Loading
Personal Weather Stations






























Interactive Weather Map New forecast layout! Learn more

10-Day Weather Forecast

Advertisements
Track Severe Weather on mobile